sensor_id;sensor_type;location;lat;lon;timestamp;P1;durP1;ratioP1;P2;durP2;ratioP2
60935;SDS011;46804;51.786;19.520;2022-07-05T00:02:00;8.30;;;6.35;;
60935;SDS011;46804;51.786;19.520;2022-07-05T00:06:01;8.13;;;5.95;;
60935;SDS011;46804;51.786;19.520;2022-07-05T00:10:02;7.95;;;6.05;;
60935;SDS011;46804;51.786;19.520;2022-07-05T00:14:03;7.60;;;6.15;;
60935;SDS011;46804;51.786;19.520;2022-07-05T00:18:04;11.35;;;6.47;;
60935;SDS011;46804;51.786;19.520;2022-07-05T00:22:04;9.23;;;6.85;;
60935;SDS011;46804;51.786;19.520;2022-07-05T00:26:05;11.25;;;6.72;;
60935;SDS011;46804;51.786;19.520;2022-07-05T00:30:06;11.13;;;7.00;;
60935;SDS011;46804;51.786;19.520;2022-07-05T00:34:07;8.27;;;6.55;;
60935;SDS011;46804;51.786;19.520;2022-07-05T00:38:08;9.52;;;6.60;;
60935;SDS011;46804;51.786;19.520;2022-07-05T00:42:08;9.45;;;6.68;;
60935;SDS011;46804;51.786;19.520;2022-07-05T00:46:09;10.30;;;6.53;;
60935;SDS011;46804;51.786;19.520;2022-07-05T00:50:10;10.00;;;7.07;;
60935;SDS011;46804;51.786;19.520;2022-07-05T00:54:10;13.15;;;6.43;;
60935;SDS011;46804;51.786;19.520;2022-07-05T00:58:11;12.02;;;7.20;;
60935;SDS011;46804;51.786;19.520;2022-07-05T01:02:12;10.05;;;7.57;;
60935;SDS011;46804;51.786;19.520;2022-07-05T01:06:13;8.25;;;7.18;;
60935;SDS011;46804;51.786;19.520;2022-07-05T01:10:14;9.02;;;6.63;;
60935;SDS011;46804;51.786;19.520;2022-07-05T01:14:18;11.60;;;7.30;;
60935;SDS011;46804;51.786;19.520;2022-07-05T01:18:20;12.82;;;7.00;;
60935;SDS011;46804;51.786;19.520;2022-07-05T01:22:21;13.25;;;6.80;;
60935;SDS011;46804;51.786;19.520;2022-07-05T01:26:26;9.45;;;6.50;;
60935;SDS011;46804;51.786;19.520;2022-07-05T01:30:26;9.02;;;7.00;;
60935;SDS011;46804;51.786;19.520;2022-07-05T01:34:27;6.82;;;5.45;;
60935;SDS011;46804;51.786;19.520;2022-07-05T01:38:27;7.10;;;6.40;;
60935;SDS011;46804;51.786;19.520;2022-07-05T01:42:29;11.45;;;6.88;;
60935;SDS011;46804;51.786;19.520;2022-07-05T01:46:31;8.95;;;5.90;;
60935;SDS011;46804;51.786;19.520;2022-07-05T01:50:41;8.80;;;5.22;;
60935;SDS011;46804;51.786;19.520;2022-07-05T01:54:48;6.45;;;5.38;;
60935;SDS011;46804;51.786;19.520;2022-07-05T01:58:48;8.45;;;5.60;;
60935;SDS011;46804;51.786;19.520;2022-07-05T02:02:51;7.80;;;6.35;;
60935;SDS011;46804;51.786;19.520;2022-07-05T02:06:53;11.10;;;7.35;;
60935;SDS011;46804;51.786;19.520;2022-07-05T02:10:53;11.23;;;8.00;;
60935;SDS011;46804;51.786;19.520;2022-07-05T02:14:54;9.63;;;7.80;;
60935;SDS011;46804;51.786;19.520;2022-07-05T02:18:54;11.65;;;8.68;;
60935;SDS011;46804;51.786;19.520;2022-07-05T02:22:55;11.40;;;8.20;;
60935;SDS011;46804;51.786;19.520;2022-07-05T02:26:56;12.52;;;8.57;;
60935;SDS011;46804;51.786;19.520;2022-07-05T02:30:57;12.02;;;8.63;;
60935;SDS011;46804;51.786;19.520;2022-07-05T02:34:57;13.57;;;8.90;;
60935;SDS011;46804;51.786;19.520;2022-07-05T02:38:58;15.23;;;8.98;;
60935;SDS011;46804;51.786;19.520;2022-07-05T02:42:58;13.35;;;9.77;;
60935;SDS011;46804;51.786;19.520;2022-07-05T02:46:59;10.90;;;8.70;;
60935;SDS011;46804;51.786;19.520;2022-07-05T02:50:59;16.13;;;9.23;;
60935;SDS011;46804;51.786;19.520;2022-07-05T02:55:01;10.15;;;8.82;;
60935;SDS011;46804;51.786;19.520;2022-07-05T02:59:02;12.50;;;9.52;;
60935;SDS011;46804;51.786;19.520;2022-07-05T03:03:03;13.88;;;10.57;;
60935;SDS011;46804;51.786;19.520;2022-07-05T03:07:04;17.48;;;9.48;;
60935;SDS011;46804;51.786;19.520;2022-07-05T03:11:05;11.15;;;9.13;;
60935;SDS011;46804;51.786;19.520;2022-07-05T03:15:05;12.63;;;8.95;;
60935;SDS011;46804;51.786;19.520;2022-07-05T03:19:06;12.80;;;9.45;;
60935;SDS011;46804;51.786;19.520;2022-07-05T03:23:07;10.95;;;9.63;;
60935;SDS011;46804;51.786;19.520;2022-07-05T03:27:07;17.80;;;10.48;;
60935;SDS011;46804;51.786;19.520;2022-07-05T03:31:08;15.25;;;9.80;;
60935;SDS011;46804;51.786;19.520;2022-07-05T03:35:08;14.07;;;10.55;;
60935;SDS011;46804;51.786;19.520;2022-07-05T03:39:09;14.70;;;10.40;;
60935;SDS011;46804;51.786;19.520;2022-07-05T03:43:10;15.05;;;10.65;;
60935;SDS011;46804;51.786;19.520;2022-07-05T03:47:10;11.98;;;10.13;;
60935;SDS011;46804;51.786;19.520;2022-07-05T03:51:11;13.20;;;10.43;;
60935;SDS011;46804;51.786;19.520;2022-07-05T03:55:11;12.40;;;10.20;;
60935;SDS011;46804;51.786;19.520;2022-07-05T03:59:12;15.02;;;9.73;;
60935;SDS011;46804;51.786;19.520;2022-07-05T04:03:12;13.55;;;9.25;;
60935;SDS011;46804;51.786;19.520;2022-07-05T04:07:13;11.38;;;8.73;;
60935;SDS011;46804;51.786;19.520;2022-07-05T04:11:13;14.32;;;9.52;;
60935;SDS011;46804;51.786;19.520;2022-07-05T04:15:16;10.75;;;8.45;;
60935;SDS011;46804;51.786;19.520;2022-07-05T04:19:16;11.05;;;8.73;;
60935;SDS011;46804;51.786;19.520;2022-07-05T04:23:17;10.98;;;8.05;;
60935;SDS011;46804;51.786;19.520;2022-07-05T04:27:17;9.10;;;8.20;;
60935;SDS011;46804;51.786;19.520;2022-07-05T04:31:18;13.15;;;8.35;;
60935;SDS011;46804;51.786;19.520;2022-07-05T04:35:18;8.70;;;7.60;;
60935;SDS011;46804;51.786;19.520;2022-07-05T04:39:19;9.75;;;6.68;;
60935;SDS011;46804;51.786;19.520;2022-07-05T04:43:20;9.73;;;7.00;;
60935;SDS011;46804;51.786;19.520;2022-07-05T04:47:21;8.02;;;6.45;;
60935;SDS011;46804;51.786;19.520;2022-07-05T04:51:21;7.45;;;5.70;;
60935;SDS011;46804;51.786;19.520;2022-07-05T04:55:22;7.90;;;5.38;;
60935;SDS011;46804;51.786;19.520;2022-07-05T04:59:22;7.15;;;5.28;;
60935;SDS011;46804;51.786;19.520;2022-07-05T05:03:23;8.73;;;5.00;;
60935;SDS011;46804;51.786;19.520;2022-07-05T05:07:23;7.57;;;4.60;;
60935;SDS011;46804;51.786;19.520;2022-07-05T05:11:24;6.07;;;4.25;;
60935;SDS011;46804;51.786;19.520;2022-07-05T05:15:24;6.63;;;4.25;;
60935;SDS011;46804;51.786;19.520;2022-07-05T05:19:25;4.68;;;3.75;;
60935;SDS011;46804;51.786;19.520;2022-07-05T05:23:25;8.88;;;3.65;;
60935;SDS011;46804;51.786;19.520;2022-07-05T05:27:26;6.10;;;3.78;;
60935;SDS011;46804;51.786;19.520;2022-07-05T05:31:26;5.60;;;3.50;;
60935;SDS011;46804;51.786;19.520;2022-07-05T05:35:28;7.28;;;3.85;;
60935;SDS011;46804;51.786;19.520;2022-07-05T05:39:28;6.18;;;3.58;;
60935;SDS011;46804;51.786;19.520;2022-07-05T05:43:29;5.57;;;3.25;;
60935;SDS011;46804;51.786;19.520;2022-07-05T05:47:29;5.00;;;3.35;;
60935;SDS011;46804;51.786;19.520;2022-07-05T05:51:30;7.32;;;3.25;;
60935;SDS011;46804;51.786;19.520;2022-07-05T05:55:30;7.20;;;3.30;;
60935;SDS011;46804;51.786;19.520;2022-07-05T05:59:32;4.65;;;3.40;;
60935;SDS011;46804;51.786;19.520;2022-07-05T06:03:32;8.77;;;3.47;;
60935;SDS011;46804;51.786;19.520;2022-07-05T06:12:03;7.90;;;3.42;;
60935;SDS011;46804;51.786;19.520;2022-07-05T06:16:05;8.52;;;5.28;;
60935;SDS011;46804;51.786;19.520;2022-07-05T06:20:10;4.53;;;3.53;;
60935;SDS011;46804;51.786;19.520;2022-07-05T06:24:13;5.50;;;3.03;;
60935;SDS011;46804;51.786;19.520;2022-07-05T06:28:13;4.35;;;2.97;;
60935;SDS011;46804;51.786;19.520;2022-07-05T06:32:14;7.22;;;3.25;;
60935;SDS011;46804;51.786;19.520;2022-07-05T06:36:14;6.10;;;3.50;;
60935;SDS011;46804;51.786;19.520;2022-07-05T06:40:19;6.15;;;3.53;;
60935;SDS011;46804;51.786;19.520;2022-07-05T06:44:23;4.00;;;2.90;;
60935;SDS011;46804;51.786;19.520;2022-07-05T06:48:24;6.63;;;3.17;;
60935;SDS011;46804;51.786;19.520;2022-07-05T06:52:24;6.15;;;3.55;;
60935;SDS011;46804;51.786;19.520;2022-07-05T06:56:25;9.20;;;3.63;;
60935;SDS011;46804;51.786;19.520;2022-07-05T07:00:26;5.88;;;3.58;;
60935;SDS011;46804;51.786;19.520;2022-07-05T07:04:27;4.43;;;3.25;;
60935;SDS011;46804;51.786;19.520;2022-07-05T07:08:27;6.35;;;3.35;;
60935;SDS011;46804;51.786;19.520;2022-07-05T07:12:47;4.22;;;2.97;;
60935;SDS011;46804;51.786;19.520;2022-07-05T07:16:47;5.82;;;3.20;;
60935;SDS011;46804;51.786;19.520;2022-07-05T07:20:48;6.85;;;2.97;;
60935;SDS011;46804;51.786;19.520;2022-07-05T07:24:48;5.15;;;3.00;;
60935;SDS011;46804;51.786;19.520;2022-07-05T07:28:49;4.68;;;2.75;;
60935;SDS011;46804;51.786;19.520;2022-07-05T07:32:49;4.00;;;2.78;;
60935;SDS011;46804;51.786;19.520;2022-07-05T07:36:50;7.60;;;2.97;;
60935;SDS011;46804;51.786;19.520;2022-07-05T07:40:52;4.10;;;2.80;;
60935;SDS011;46804;51.786;19.520;2022-07-05T07:44:52;6.25;;;2.95;;
60935;SDS011;46804;51.786;19.520;2022-07-05T07:48:53;7.82;;;2.83;;
60935;SDS011;46804;51.786;19.520;2022-07-05T07:52:53;3.80;;;2.55;;
60935;SDS011;46804;51.786;19.520;2022-07-05T07:56:54;3.72;;;2.58;;
60935;SDS011;46804;51.786;19.520;2022-07-05T08:00:54;5.22;;;2.58;;
60935;SDS011;46804;51.786;19.520;2022-07-05T08:04:55;6.78;;;2.50;;
60935;SDS011;46804;51.786;19.520;2022-07-05T08:12:58;26.87;;;3.20;;
60935;SDS011;46804;51.786;19.520;2022-07-05T08:16:59;6.20;;;2.53;;
60935;SDS011;46804;51.786;19.520;2022-07-05T08:20:59;5.90;;;2.50;;
60935;SDS011;46804;51.786;19.520;2022-07-05T08:25:18;4.40;;;2.67;;
60935;SDS011;46804;51.786;19.520;2022-07-05T08:29:19;4.65;;;2.13;;
60935;SDS011;46804;51.786;19.520;2022-07-05T08:33:19;3.83;;;2.22;;
60935;SDS011;46804;51.786;19.520;2022-07-05T08:37:20;4.53;;;2.20;;
60935;SDS011;46804;51.786;19.520;2022-07-05T08:41:21;5.28;;;2.35;;
60935;SDS011;46804;51.786;19.520;2022-07-05T08:45:23;3.70;;;2.08;;
60935;SDS011;46804;51.786;19.520;2022-07-05T08:49:27;3.80;;;2.05;;
60935;SDS011;46804;51.786;19.520;2022-07-05T08:53:28;4.70;;;2.20;;
60935;SDS011;46804;51.786;19.520;2022-07-05T08:57:30;4.63;;;2.10;;
60935;SDS011;46804;51.786;19.520;2022-07-05T09:01:30;3.25;;;2.08;;
60935;SDS011;46804;51.786;19.520;2022-07-05T09:05:34;4.10;;;2.20;;
60935;SDS011;46804;51.786;19.520;2022-07-05T09:09:42;4.47;;;2.40;;
60935;SDS011;46804;51.786;19.520;2022-07-05T09:13:47;6.93;;;2.50;;
60935;SDS011;46804;51.786;19.520;2022-07-05T09:17:49;4.22;;;2.20;;
60935;SDS011;46804;51.786;19.520;2022-07-05T09:22:00;2.83;;;1.92;;
60935;SDS011;46804;51.786;19.520;2022-07-05T09:26:02;5.57;;;2.30;;
60935;SDS011;46804;51.786;19.520;2022-07-05T09:30:03;3.80;;;2.20;;
60935;SDS011;46804;51.786;19.520;2022-07-05T09:34:05;4.53;;;2.20;;
60935;SDS011;46804;51.786;19.520;2022-07-05T09:38:17;6.10;;;2.30;;
60935;SDS011;46804;51.786;19.520;2022-07-05T09:42:22;5.35;;;2.10;;
60935;SDS011;46804;51.786;19.520;2022-07-05T09:46:29;3.30;;;2.10;;
60935;SDS011;46804;51.786;19.520;2022-07-05T09:50:34;3.33;;;2.10;;
60935;SDS011;46804;51.786;19.520;2022-07-05T09:54:35;5.28;;;2.13;;
60935;SDS011;46804;51.786;19.520;2022-07-05T09:58:36;3.38;;;2.08;;
60935;SDS011;46804;51.786;19.520;2022-07-05T10:02:43;3.88;;;1.95;;
60935;SDS011;46804;51.786;19.520;2022-07-05T10:06:51;3.53;;;1.98;;
60935;SDS011;46804;51.786;19.520;2022-07-05T10:10:52;3.80;;;2.10;;
60935;SDS011;46804;51.786;19.520;2022-07-05T10:14:52;3.47;;;2.00;;
60935;SDS011;46804;51.786;19.520;2022-07-05T10:18:55;4.18;;;2.45;;
60935;SDS011;46804;51.786;19.520;2022-07-05T10:22:56;3.80;;;1.88;;
60935;SDS011;46804;51.786;19.520;2022-07-05T10:26:58;3.08;;;2.10;;
60935;SDS011;46804;51.786;19.520;2022-07-05T10:30:58;4.85;;;2.30;;
60935;SDS011;46804;51.786;19.520;2022-07-05T10:35:00;5.03;;;2.00;;
60935;SDS011;46804;51.786;19.520;2022-07-05T10:39:03;3.90;;;2.05;;
60935;SDS011;46804;51.786;19.520;2022-07-05T10:43:04;3.20;;;2.17;;
60935;SDS011;46804;51.786;19.520;2022-07-05T10:47:07;5.57;;;2.40;;
60935;SDS011;46804;51.786;19.520;2022-07-05T10:59:18;4.43;;;2.35;;
60935;SDS011;46804;51.786;19.520;2022-07-05T11:03:32;4.57;;;2.45;;
60935;SDS011;46804;51.786;19.520;2022-07-05T11:12:01;5.25;;;2.72;;
60935;SDS011;46804;51.786;19.520;2022-07-05T11:20:26;6.53;;;3.58;;
60935;SDS011;46804;51.786;19.520;2022-07-05T11:24:29;9.30;;;4.53;;
60935;SDS011;46804;51.786;19.520;2022-07-05T11:28:40;5.07;;;3.95;;
60935;SDS011;46804;51.786;19.520;2022-07-05T11:32:43;5.75;;;4.45;;
60935;SDS011;46804;51.786;19.520;2022-07-05T11:36:43;7.38;;;4.65;;
60935;SDS011;46804;51.786;19.520;2022-07-05T11:40:51;8.75;;;5.22;;
60935;SDS011;46804;51.786;19.520;2022-07-05T11:44:54;7.68;;;5.35;;
60935;SDS011;46804;51.786;19.520;2022-07-05T11:48:55;8.00;;;5.30;;
60935;SDS011;46804;51.786;19.520;2022-07-05T11:52:56;8.02;;;4.95;;
60935;SDS011;46804;51.786;19.520;2022-07-05T11:56:57;6.18;;;4.72;;
60935;SDS011;46804;51.786;19.520;2022-07-05T12:00:59;6.32;;;4.57;;
60935;SDS011;46804;51.786;19.520;2022-07-05T12:05:00;5.55;;;4.30;;
60935;SDS011;46804;51.786;19.520;2022-07-05T12:09:01;6.70;;;4.13;;
60935;SDS011;46804;51.786;19.520;2022-07-05T12:13:06;5.95;;;4.55;;
60935;SDS011;46804;51.786;19.520;2022-07-05T12:17:11;7.47;;;4.50;;
60935;SDS011;46804;51.786;19.520;2022-07-05T12:21:12;6.15;;;4.82;;
60935;SDS011;46804;51.786;19.520;2022-07-05T12:25:15;6.35;;;5.07;;
60935;SDS011;46804;51.786;19.520;2022-07-05T12:29:17;6.85;;;4.60;;
60935;SDS011;46804;51.786;19.520;2022-07-05T12:33:19;8.07;;;4.15;;
60935;SDS011;46804;51.786;19.520;2022-07-05T12:37:23;6.63;;;4.93;;
60935;SDS011;46804;51.786;19.520;2022-07-05T12:41:25;6.45;;;4.80;;
60935;SDS011;46804;51.786;19.520;2022-07-05T12:45:25;7.57;;;4.45;;
60935;SDS011;46804;51.786;19.520;2022-07-05T12:49:26;8.77;;;4.18;;
60935;SDS011;46804;51.786;19.520;2022-07-05T12:53:27;6.97;;;4.43;;
60935;SDS011;46804;51.786;19.520;2022-07-05T12:57:49;5.95;;;4.32;;
60935;SDS011;46804;51.786;19.520;2022-07-05T13:02:02;5.90;;;4.03;;
60935;SDS011;46804;51.786;19.520;2022-07-05T13:06:03;6.53;;;4.10;;
60935;SDS011;46804;51.786;19.520;2022-07-05T13:10:17;8.23;;;4.78;;
60935;SDS011;46804;51.786;19.520;2022-07-05T13:14:19;5.57;;;4.30;;
60935;SDS011;46804;51.786;19.520;2022-07-05T13:18:24;5.03;;;4.03;;
60935;SDS011;46804;51.786;19.520;2022-07-05T13:22:25;7.60;;;4.07;;
60935;SDS011;46804;51.786;19.520;2022-07-05T13:26:26;5.88;;;4.20;;
60935;SDS011;46804;51.786;19.520;2022-07-05T13:30:27;5.53;;;3.60;;
60935;SDS011;46804;51.786;19.520;2022-07-05T13:34:27;5.78;;;3.60;;
60935;SDS011;46804;51.786;19.520;2022-07-05T13:38:28;7.13;;;3.72;;
60935;SDS011;46804;51.786;19.520;2022-07-05T13:42:29;5.07;;;3.88;;
60935;SDS011;46804;51.786;19.520;2022-07-05T13:46:30;5.55;;;3.92;;
60935;SDS011;46804;51.786;19.520;2022-07-05T13:50:30;5.40;;;3.72;;
60935;SDS011;46804;51.786;19.520;2022-07-05T13:54:34;7.45;;;3.95;;
60935;SDS011;46804;51.786;19.520;2022-07-05T13:58:35;7.55;;;3.92;;
60935;SDS011;46804;51.786;19.520;2022-07-05T14:02:35;8.18;;;3.97;;
60935;SDS011;46804;51.786;19.520;2022-07-05T14:06:36;6.50;;;4.22;;
60935;SDS011;46804;51.786;19.520;2022-07-05T14:10:38;6.15;;;4.20;;
60935;SDS011;46804;51.786;19.520;2022-07-05T14:14:39;8.27;;;4.85;;
60935;SDS011;46804;51.786;19.520;2022-07-05T14:18:40;6.70;;;4.65;;
60935;SDS011;46804;51.786;19.520;2022-07-05T14:22:40;10.52;;;4.50;;
60935;SDS011;46804;51.786;19.520;2022-07-05T14:26:41;5.72;;;4.07;;
60935;SDS011;46804;51.786;19.520;2022-07-05T14:30:45;7.72;;;4.78;;
60935;SDS011;46804;51.786;19.520;2022-07-05T14:34:46;7.32;;;3.75;;
60935;SDS011;46804;51.786;19.520;2022-07-05T14:38:47;4.60;;;3.45;;
60935;SDS011;46804;51.786;19.520;2022-07-05T14:42:47;4.30;;;3.08;;
60935;SDS011;46804;51.786;19.520;2022-07-05T14:46:48;5.40;;;3.35;;
60935;SDS011;46804;51.786;19.520;2022-07-05T14:50:48;3.17;;;2.60;;
60935;SDS011;46804;51.786;19.520;2022-07-05T14:54:49;5.25;;;3.38;;
60935;SDS011;46804;51.786;19.520;2022-07-05T14:58:50;4.63;;;3.22;;
60935;SDS011;46804;51.786;19.520;2022-07-05T15:02:50;5.35;;;3.50;;
60935;SDS011;46804;51.786;19.520;2022-07-05T15:06:51;4.05;;;2.72;;
60935;SDS011;46804;51.786;19.520;2022-07-05T15:10:52;6.22;;;3.17;;
60935;SDS011;46804;51.786;19.520;2022-07-05T15:14:53;4.85;;;3.10;;
60935;SDS011;46804;51.786;19.520;2022-07-05T15:18:53;4.00;;;3.20;;
60935;SDS011;46804;51.786;19.520;2022-07-05T15:22:54;6.22;;;3.47;;
60935;SDS011;46804;51.786;19.520;2022-07-05T15:31:02;5.10;;;3.70;;
60935;SDS011;46804;51.786;19.520;2022-07-05T15:35:03;4.95;;;3.30;;
60935;SDS011;46804;51.786;19.520;2022-07-05T15:39:04;4.15;;;3.25;;
60935;SDS011;46804;51.786;19.520;2022-07-05T15:43:07;3.90;;;2.90;;
60935;SDS011;46804;51.786;19.520;2022-07-05T15:47:07;9.18;;;3.35;;
60935;SDS011;46804;51.786;19.520;2022-07-05T15:51:10;3.88;;;3.15;;
60935;SDS011;46804;51.786;19.520;2022-07-05T15:55:12;3.53;;;2.77;;
60935;SDS011;46804;51.786;19.520;2022-07-05T15:59:13;3.67;;;2.92;;
60935;SDS011;46804;51.786;19.520;2022-07-05T16:03:13;4.20;;;2.90;;
60935;SDS011;46804;51.786;19.520;2022-07-05T16:07:14;6.65;;;3.30;;
60935;SDS011;46804;51.786;19.520;2022-07-05T16:11:14;4.35;;;2.97;;
60935;SDS011;46804;51.786;19.520;2022-07-05T16:15:15;6.65;;;3.25;;
60935;SDS011;46804;51.786;19.520;2022-07-05T16:19:35;5.32;;;3.13;;
60935;SDS011;46804;51.786;19.520;2022-07-05T16:23:36;5.70;;;3.38;;
60935;SDS011;46804;51.786;19.520;2022-07-05T16:27:37;4.75;;;3.15;;
60935;SDS011;46804;51.786;19.520;2022-07-05T16:31:38;5.28;;;3.08;;
60935;SDS011;46804;51.786;19.520;2022-07-05T16:35:39;4.38;;;2.97;;
60935;SDS011;46804;51.786;19.520;2022-07-05T16:39:39;6.85;;;3.45;;
60935;SDS011;46804;51.786;19.520;2022-07-05T16:43:40;4.93;;;3.30;;
60935;SDS011;46804;51.786;19.520;2022-07-05T16:47:45;9.40;;;3.15;;
60935;SDS011;46804;51.786;19.520;2022-07-05T16:51:45;5.47;;;2.90;;
60935;SDS011;46804;51.786;19.520;2022-07-05T16:55:46;4.25;;;2.92;;
60935;SDS011;46804;51.786;19.520;2022-07-05T16:59:46;6.47;;;3.05;;
60935;SDS011;46804;51.786;19.520;2022-07-05T17:03:48;6.15;;;3.30;;
60935;SDS011;46804;51.786;19.520;2022-07-05T17:07:49;5.28;;;3.42;;
60935;SDS011;46804;51.786;19.520;2022-07-05T17:11:50;4.65;;;3.30;;
60935;SDS011;46804;51.786;19.520;2022-07-05T17:15:50;4.60;;;3.17;;
60935;SDS011;46804;51.786;19.520;2022-07-05T17:19:51;7.32;;;3.00;;
60935;SDS011;46804;51.786;19.520;2022-07-05T17:23:51;8.60;;;3.20;;
60935;SDS011;46804;51.786;19.520;2022-07-05T17:27:52;3.90;;;2.80;;
60935;SDS011;46804;51.786;19.520;2022-07-05T17:31:52;5.35;;;2.88;;
60935;SDS011;46804;51.786;19.520;2022-07-05T17:35:53;4.30;;;2.85;;
60935;SDS011;46804;51.786;19.520;2022-07-05T17:39:53;4.07;;;2.90;;
60935;SDS011;46804;51.786;19.520;2022-07-05T17:43:54;4.10;;;2.83;;
60935;SDS011;46804;51.786;19.520;2022-07-05T17:47:54;5.55;;;2.80;;
60935;SDS011;46804;51.786;19.520;2022-07-05T17:51:55;5.43;;;2.63;;
60935;SDS011;46804;51.786;19.520;2022-07-05T17:55:55;5.30;;;3.10;;
60935;SDS011;46804;51.786;19.520;2022-07-05T17:59:56;4.20;;;2.95;;
60935;SDS011;46804;51.786;19.520;2022-07-05T18:03:57;5.57;;;3.50;;
60935;SDS011;46804;51.786;19.520;2022-07-05T18:07:57;4.13;;;3.28;;
60935;SDS011;46804;51.786;19.520;2022-07-05T18:11:58;4.22;;;3.33;;
60935;SDS011;46804;51.786;19.520;2022-07-05T18:15:58;6.00;;;4.07;;
60935;SDS011;46804;51.786;19.520;2022-07-05T18:20:02;5.55;;;3.80;;
60935;SDS011;46804;51.786;19.520;2022-07-05T18:24:03;7.78;;;3.80;;
60935;SDS011;46804;51.786;19.520;2022-07-05T18:28:04;4.82;;;3.58;;
60935;SDS011;46804;51.786;19.520;2022-07-05T18:32:04;6.80;;;3.92;;
60935;SDS011;46804;51.786;19.520;2022-07-05T18:36:05;7.55;;;5.45;;
60935;SDS011;46804;51.786;19.520;2022-07-05T18:40:06;6.45;;;4.43;;
60935;SDS011;46804;51.786;19.520;2022-07-05T18:44:07;7.45;;;4.88;;
60935;SDS011;46804;51.786;19.520;2022-07-05T18:48:10;12.57;;;4.57;;
60935;SDS011;46804;51.786;19.520;2022-07-05T18:56:11;6.70;;;4.13;;
60935;SDS011;46804;51.786;19.520;2022-07-05T19:00:12;6.60;;;4.18;;
60935;SDS011;46804;51.786;19.520;2022-07-05T19:04:13;5.20;;;3.80;;
60935;SDS011;46804;51.786;19.520;2022-07-05T19:08:14;7.13;;;3.80;;
60935;SDS011;46804;51.786;19.520;2022-07-05T19:12:33;5.70;;;4.43;;
60935;SDS011;46804;51.786;19.520;2022-07-05T19:16:52;7.72;;;3.90;;
60935;SDS011;46804;51.786;19.520;2022-07-05T19:20:52;7.45;;;4.40;;
60935;SDS011;46804;51.786;19.520;2022-07-05T19:24:53;7.88;;;4.50;;
60935;SDS011;46804;51.786;19.520;2022-07-05T19:28:54;5.47;;;4.10;;
60935;SDS011;46804;51.786;19.520;2022-07-05T19:32:54;8.25;;;4.55;;
60935;SDS011;46804;51.786;19.520;2022-07-05T19:36:55;6.60;;;4.85;;
60935;SDS011;46804;51.786;19.520;2022-07-05T19:40:55;7.90;;;4.65;;
60935;SDS011;46804;51.786;19.520;2022-07-05T19:44:56;12.13;;;6.53;;
60935;SDS011;46804;51.786;19.520;2022-07-05T19:48:56;9.27;;;5.60;;
60935;SDS011;46804;51.786;19.520;2022-07-05T19:52:57;7.90;;;5.82;;
60935;SDS011;46804;51.786;19.520;2022-07-05T19:56:58;10.88;;;6.50;;
60935;SDS011;46804;51.786;19.520;2022-07-05T20:01:00;8.27;;;5.20;;
60935;SDS011;46804;51.786;19.520;2022-07-05T20:05:00;8.75;;;5.07;;
60935;SDS011;46804;51.786;19.520;2022-07-05T20:09:01;8.82;;;5.00;;
60935;SDS011;46804;51.786;19.520;2022-07-05T20:13:02;6.65;;;4.90;;
60935;SDS011;46804;51.786;19.520;2022-07-05T20:17:03;7.38;;;5.28;;
60935;SDS011;46804;51.786;19.520;2022-07-05T20:21:04;6.88;;;4.47;;
60935;SDS011;46804;51.786;19.520;2022-07-05T20:25:05;5.97;;;4.70;;
60935;SDS011;46804;51.786;19.520;2022-07-05T20:29:05;6.55;;;5.05;;
60935;SDS011;46804;51.786;19.520;2022-07-05T20:33:06;7.10;;;4.78;;
60935;SDS011;46804;51.786;19.520;2022-07-05T20:37:07;7.25;;;4.95;;
60935;SDS011;46804;51.786;19.520;2022-07-05T20:41:08;14.13;;;8.18;;
60935;SDS011;46804;51.786;19.520;2022-07-05T20:45:09;9.45;;;5.30;;
60935;SDS011;46804;51.786;19.520;2022-07-05T20:49:09;5.70;;;4.82;;
60935;SDS011;46804;51.786;19.520;2022-07-05T20:53:10;6.70;;;5.10;;
60935;SDS011;46804;51.786;19.520;2022-07-05T20:57:10;8.18;;;4.80;;
60935;SDS011;46804;51.786;19.520;2022-07-05T21:01:11;7.75;;;5.10;;
60935;SDS011;46804;51.786;19.520;2022-07-05T21:05:12;8.27;;;5.45;;
60935;SDS011;46804;51.786;19.520;2022-07-05T21:09:13;8.57;;;5.55;;
60935;SDS011;46804;51.786;19.520;2022-07-05T21:13:14;6.45;;;5.18;;
60935;SDS011;46804;51.786;19.520;2022-07-05T21:17:15;6.45;;;5.10;;
60935;SDS011;46804;51.786;19.520;2022-07-05T21:21:15;8.82;;;5.40;;
60935;SDS011;46804;51.786;19.520;2022-07-05T21:25:16;10.95;;;5.95;;
60935;SDS011;46804;51.786;19.520;2022-07-05T21:29:16;9.05;;;5.40;;
60935;SDS011;46804;51.786;19.520;2022-07-05T21:33:17;6.15;;;4.78;;
60935;SDS011;46804;51.786;19.520;2022-07-05T21:37:17;9.57;;;5.68;;
60935;SDS011;46804;51.786;19.520;2022-07-05T21:41:18;9.40;;;5.32;;
60935;SDS011;46804;51.786;19.520;2022-07-05T21:45:18;7.15;;;5.57;;
60935;SDS011;46804;51.786;19.520;2022-07-05T21:49:19;6.22;;;5.45;;
60935;SDS011;46804;51.786;19.520;2022-07-05T21:53:19;6.65;;;5.20;;
60935;SDS011;46804;51.786;19.520;2022-07-05T21:57:20;7.50;;;5.53;;
60935;SDS011;46804;51.786;19.520;2022-07-05T22:01:21;9.18;;;5.70;;
60935;SDS011;46804;51.786;19.520;2022-07-05T22:05:40;8.70;;;5.90;;
60935;SDS011;46804;51.786;19.520;2022-07-05T22:09:40;8.48;;;6.60;;
60935;SDS011;46804;51.786;19.520;2022-07-05T22:13:41;7.15;;;6.25;;
60935;SDS011;46804;51.786;19.520;2022-07-05T22:17:42;9.02;;;6.70;;
60935;SDS011;46804;51.786;19.520;2022-07-05T22:21:42;9.10;;;7.25;;
60935;SDS011;46804;51.786;19.520;2022-07-05T22:25:43;8.82;;;6.40;;
60935;SDS011;46804;51.786;19.520;2022-07-05T22:29:43;9.63;;;7.13;;
60935;SDS011;46804;51.786;19.520;2022-07-05T22:33:44;9.05;;;7.18;;
60935;SDS011;46804;51.786;19.520;2022-07-05T22:37:45;10.48;;;8.13;;
60935;SDS011;46804;51.786;19.520;2022-07-05T22:41:45;10.05;;;7.78;;
60935;SDS011;46804;51.786;19.520;2022-07-05T22:45:46;9.90;;;8.15;;
60935;SDS011;46804;51.786;19.520;2022-07-05T22:49:46;10.55;;;8.45;;
60935;SDS011;46804;51.786;19.520;2022-07-05T22:53:47;10.95;;;8.55;;
60935;SDS011;46804;51.786;19.520;2022-07-05T22:57:48;8.65;;;7.38;;
60935;SDS011;46804;51.786;19.520;2022-07-05T23:01:48;10.82;;;7.55;;
60935;SDS011;46804;51.786;19.520;2022-07-05T23:05:49;11.05;;;8.30;;
60935;SDS011;46804;51.786;19.520;2022-07-05T23:09:49;11.00;;;8.48;;
60935;SDS011;46804;51.786;19.520;2022-07-05T23:13:50;9.85;;;7.25;;
60935;SDS011;46804;51.786;19.520;2022-07-05T23:17:50;8.80;;;7.22;;
60935;SDS011;46804;51.786;19.520;2022-07-05T23:21:51;9.63;;;7.00;;
60935;SDS011;46804;51.786;19.520;2022-07-05T23:25:51;8.05;;;6.85;;
60935;SDS011;46804;51.786;19.520;2022-07-05T23:29:52;11.15;;;7.05;;
60935;SDS011;46804;51.786;19.520;2022-07-05T23:33:52;10.93;;;7.18;;
60935;SDS011;46804;51.786;19.520;2022-07-05T23:37:53;10.02;;;6.80;;
60935;SDS011;46804;51.786;19.520;2022-07-05T23:41:53;7.88;;;6.40;;
60935;SDS011;46804;51.786;19.520;2022-07-05T23:45:54;9.85;;;6.78;;
60935;SDS011;46804;51.786;19.520;2022-07-05T23:49:54;7.72;;;6.45;;
60935;SDS011;46804;51.786;19.520;2022-07-05T23:53:55;7.63;;;6.63;;
60935;SDS011;46804;51.786;19.520;2022-07-05T23:57:55;9.85;;;6.93;;
